Архив погоды в Ахты

Метеограмма Ахты
Среда, 15 Августа
Время местн. Темп Ветер Видим Явления Облачность нижн/средн/верх Атм. давл. Влжн Точка росы ВНГО R Сост. почвы Tg s
Напр Скр Прв ур.ст ур.м изм
00:00 +15.6° З 1 - 10 км - переменная облачность 678 641 -0.4 90% +13.9° 1 км - - - -
Вторник, 14 Августа
Время местн. Темп Ветер Видим Явления Облачность нижн/средн/верх Атм. давл. Влжн Точка росы ВНГО R Сост. почвы Tg s
Напр Скр Прв ур.ст ур.м изм
21:00 +16.3° штиль 0 - 10 км - облачно 679 641 +0.6 83% +13.5° 1 км - - - -
18:00 +17.4° штиль 0 - 10 км - облачно 678 640 +0.5 76% +13.2° 1 км - - - -
15:00 +18.4° В 1 - 10 км - облачно 677 640 -0.3 70% +12.8° 1 км - - - -
12:00 +18.9° В 1 - 10 км - облачно 678 640 -0.3 66% +12.5° 1 км - - - -
09:00 +18.2° В 1 - 20 км - преимущественно облачно 678 641 +0.4 73% +13.3° 1 км - - - -
06:00 +14.6° штиль 0 - 20 км - облачно с прояснениями 678 640 +0.4 94% +13.7° 1 км - Сухая (без трещин) - -
03:00 +14.9° штиль 0 - 10 км - облачно 677 640 -0.1 92% +13.6° 1 км - - - -
00:00 +15.4° штиль 0 - 10 км - облачно 677 640 +0.2 90% +13.8° 1 км - - - -
Понедельник, 13 Августа
Время местн. Темп Ветер Видим Явления Облачность нижн/средн/верх Атм. давл. Влжн Точка росы ВНГО R Сост. почвы Tg s
Напр Скр Прв ур.ст ур.м изм
21:00 +15.4° В 1 - 10 км морось или снежные зерна {морось} облачно 677 639 +1.1 94% +14.4° 1 км - - - -
18:00 +16.9° В 1 - 10 км - облачно 676 639 +0.5 88% +14.9° 1 км - - - -
15:00 +17.9° В 1 - 10 км - облачно 676 638 -0.3 78% +14° 1 км - - - -
12:00 +18.4° В 1 - 10 км - облачно 676 639 -0.4 74% +13.6° 1 км - - - -
09:00 +16.1° штиль 0 - 10 км - облачно 676 639 +0.5 85% +13.6° 1 км - - - -
06:00 +14.7° штиль 0 - 10 км - облачно 676 638 +0.2 91% +13.3° 1 км - Сухая (без трещин) - -
03:00 +14.8° штиль 0 - 10 км - облачно 676 638 +0.1 90% +13.2° 1 км - - - -
00:00 +15.6° З 1 - 10 км - облачно 676 638 0 87% +13.4° 1 км - - - -
Воскресенье, 12 Августа
Время местн. Темп Ветер Видим Явления Облачность нижн/средн/верх Атм. давл. Влжн Точка росы ВНГО R Сост. почвы Tg s
Напр Скр Прв ур.ст ур.м изм
21:00 +15.2° штиль 0 - 10 км - облачно 676 639 +0.8 89% +13.4° 1 км - - - -
18:00 +15.3° В 1 - 10 км - облачно 675 638 +0.8 87% +13.2° 1 км - - - -
15:00 +17.7° В 2 - 10 км - преимущественно облачно 675 637 -0.3 73% +12.9° 1 км - - - -
12:00 +18.5° В 2 - 50 км - переменная облачность 675 638 -1.7 67% +12.3° 1.5 км - - - -
09:00 +16.8° В 2 - 50 км - переменная облачность 677 639 -0.4 74% +12.2° 1.5 км - - - -
06:00 +12.8° штиль 0 - 10 км - облачно 678 640 -0.4 92% +11.6° 1 км - Влажная (без луж) - -
03:00 +12.4° штиль 0 - 10 км - облачно 678 640 -1.4 94% +11.4° 1 км - - - -
00:00 +12° штиль 0 - 10 км - облачно 680 641 -0.8 94% +11.1° 1 км - - - -
Суббота, 11 Августа
Время местн. Темп Ветер Видим Явления Облачность нижн/средн/верх Атм. давл. Влжн Точка росы ВНГО R Сост. почвы Tg s
Напр Скр Прв ур.ст ур.м изм
21:00 +13° штиль 0 - 10 км - переменная облачность 680 642 +0.1 91% +11.6° 1 км - - - -